sensor_id;sensor_type;location;lat;lon;timestamp;pressure;altitude;pressure_sealevel;temperature;humidity
60228;BME280;46091;46.512;6.626;2023-02-28T06:20:18;97043.78;;;3.90;55.21
60228;BME280;46091;46.512;6.626;2023-02-28T06:22:21;97057.38;;;4.21;54.84
60228;BME280;46091;46.512;6.626;2023-02-28T06:24:25;97048.97;;;4.45;54.49
60228;BME280;46091;46.512;6.626;2023-02-28T06:26:30;97053.22;;;4.63;54.31
60228;BME280;46091;46.512;6.626;2023-02-28T06:28:33;97052.97;;;4.75;54.02
60228;BME280;46091;46.512;6.626;2023-02-28T06:30:36;97056.06;;;4.88;53.97
60228;BME280;46091;46.512;6.626;2023-02-28T06:32:39;97057.09;;;4.95;53.56
60228;BME280;46091;46.512;6.626;2023-02-28T06:34:42;97060.75;;;5.02;53.63
60228;BME280;46091;46.512;6.626;2023-02-28T06:36:46;97074.06;;;5.09;53.47
60228;BME280;46091;46.512;6.626;2023-02-28T06:38:49;97070.19;;;5.13;53.38
60228;BME280;46091;46.512;6.626;2023-02-28T06:40:57;97063.50;;;5.18;53.26
60228;BME280;46091;46.512;6.626;2023-02-28T06:43:00;97077.97;;;5.22;53.21
60228;BME280;46091;46.512;6.626;2023-02-28T06:45:04;97082.88;;;5.25;53.06
60228;BME280;46091;46.512;6.626;2023-02-28T06:47:11;97080.47;;;5.32;53.13
60228;BME280;46091;46.512;6.626;2023-02-28T06:49:13;97079.34;;;5.35;53.10
60228;BME280;46091;46.512;6.626;2023-02-28T06:51:18;97076.41;;;5.38;52.78
60228;BME280;46091;46.512;6.626;2023-02-28T06:53:24;97084.13;;;5.39;53.13
60228;BME280;46091;46.512;6.626;2023-02-28T06:55:28;97082.31;;;5.40;52.70
60228;BME280;46091;46.512;6.626;2023-02-28T06:57:32;97083.16;;;5.40;52.76
60228;BME280;46091;46.512;6.626;2023-02-28T06:59:35;97086.16;;;5.45;52.62
60228;BME280;46091;46.512;6.626;2023-02-28T07:01:38;97081.72;;;5.46;52.58
60228;BME280;46091;46.512;6.626;2023-02-28T07:03:42;97081.72;;;5.46;52.42
60228;BME280;46091;46.512;6.626;2023-02-28T07:05:45;97072.16;;;5.37;52.49
60228;BME280;46091;46.512;6.626;2023-02-28T07:07:48;97076.72;;;5.35;52.45
60228;BME280;46091;46.512;6.626;2023-02-28T07:09:52;97079.34;;;5.35;52.40
60228;BME280;46091;46.512;6.626;2023-02-28T07:11:55;97082.31;;;5.40;52.30
60228;BME280;46091;46.512;6.626;2023-02-28T07:13:58;97087.25;;;5.43;52.32
60228;BME280;46091;46.512;6.626;2023-02-28T07:16:03;97087.25;;;5.43;52.13
60228;BME280;46091;46.512;6.626;2023-02-28T07:18:06;97080.09;;;5.45;52.10
60228;BME280;46091;46.512;6.626;2023-02-28T07:20:10;97084.50;;;5.44;51.87
60228;BME280;46091;46.512;6.626;2023-02-28T07:22:13;97081.06;;;5.44;51.94
60228;BME280;46091;46.512;6.626;2023-02-28T07:24:16;97080.00;;;5.37;51.91
60228;BME280;46091;46.512;6.626;2023-02-28T07:26:21;97071.34;;;5.36;51.82
60228;BME280;46091;46.512;6.626;2023-02-28T07:28:24;97085.41;;;5.35;51.82
60228;BME280;46091;46.512;6.626;2023-02-28T07:30:27;97088.69;;;5.37;51.90
60228;BME280;46091;46.512;6.626;2023-02-28T07:32:31;97085.75;;;5.40;51.57
60228;BME280;46091;46.512;6.626;2023-02-28T07:34:34;97091.69;;;5.42;51.58
60228;BME280;46091;46.512;6.626;2023-02-28T07:36:40;97094.16;;;5.44;51.47
60228;BME280;46091;46.512;6.626;2023-02-28T07:38:46;97103.81;;;5.43;51.53
60228;BME280;46091;46.512;6.626;2023-02-28T07:40:51;97092.38;;;5.44;51.46
60228;BME280;46091;46.512;6.626;2023-02-28T07:42:55;97091.56;;;5.52;51.50
60228;BME280;46091;46.512;6.626;2023-02-28T07:44:58;97087.81;;;5.54;51.21
60228;BME280;46091;46.512;6.626;2023-02-28T07:47:01;97092.63;;;5.59;51.19
60228;BME280;46091;46.512;6.626;2023-02-28T07:49:04;97085.56;;;5.60;51.17
60228;BME280;46091;46.512;6.626;2023-02-28T07:51:07;97086.22;;;5.62;51.02
60228;BME280;46091;46.512;6.626;2023-02-28T07:53:10;97093.13;;;5.63;51.14
60228;BME280;46091;46.512;6.626;2023-02-28T07:55:13;97086.75;;;5.65;50.91
60228;BME280;46091;46.512;6.626;2023-02-28T07:57:18;97092.53;;;5.69;50.99
60228;BME280;46091;46.512;6.626;2023-02-28T07:59:22;97092.19;;;5.72;50.87
60228;BME280;46091;46.512;6.626;2023-02-28T08:01:25;97092.19;;;5.72;50.86
60228;BME280;46091;46.512;6.626;2023-02-28T08:03:29;97088.59;;;5.73;50.82
60228;BME280;46091;46.512;6.626;2023-02-28T08:05:31;97092.69;;;5.75;50.60
60228;BME280;46091;46.512;6.626;2023-02-28T08:07:34;97094.06;;;5.79;50.66
60228;BME280;46091;46.512;6.626;2023-02-28T08:09:37;97095.03;;;5.78;50.62
60228;BME280;46091;46.512;6.626;2023-02-28T08:11:40;97090.06;;;5.75;50.64
60228;BME280;46091;46.512;6.626;2023-02-28T08:13:45;97090.63;;;5.79;50.55
60228;BME280;46091;46.512;6.626;2023-02-28T08:15:53;97099.31;;;5.79;50.55
60228;BME280;46091;46.512;6.626;2023-02-28T08:17:56;97090.63;;;5.79;50.36
60228;BME280;46091;46.512;6.626;2023-02-28T08:19:59;97095.84;;;5.79;50.48
60228;BME280;46091;46.512;6.626;2023-02-28T08:22:02;97098.16;;;5.82;50.39
60228;BME280;46091;46.512;6.626;2023-02-28T08:24:06;97096.34;;;5.82;50.37
60228;BME280;46091;46.512;6.626;2023-02-28T08:26:11;97091.78;;;5.84;50.53
60228;BME280;46091;46.512;6.626;2023-02-28T08:28:14;97100.31;;;5.87;50.47
60228;BME280;46091;46.512;6.626;2023-02-28T08:30:17;97091.78;;;5.84;50.25
60228;BME280;46091;46.512;6.626;2023-02-28T08:32:21;97093.41;;;5.85;50.32
60228;BME280;46091;46.512;6.626;2023-02-28T08:34:30;97089.22;;;5.93;50.21
60228;BME280;46091;46.512;6.626;2023-02-28T08:36:34;97090.72;;;5.95;50.19
60228;BME280;46091;46.512;6.626;2023-02-28T08:38:37;97100.72;;;6.00;50.06
60228;BME280;46091;46.512;6.626;2023-02-28T08:40:40;97095.19;;;6.03;50.07
60228;BME280;46091;46.512;6.626;2023-02-28T08:42:44;97099.28;;;6.05;49.78
60228;BME280;46091;46.512;6.626;2023-02-28T08:44:47;97102.56;;;6.07;49.79
60228;BME280;46091;46.512;6.626;2023-02-28T08:46:50;97103.41;;;6.08;49.78
60228;BME280;46091;46.512;6.626;2023-02-28T08:48:55;97110.13;;;6.10;49.75
60228;BME280;46091;46.512;6.626;2023-02-28T08:51:02;97111.94;;;6.10;49.90
60228;BME280;46091;46.512;6.626;2023-02-28T08:53:09;97103.75;;;6.13;49.82
60228;BME280;46091;46.512;6.626;2023-02-28T08:55:12;97106.72;;;6.18;49.78
60228;BME280;46091;46.512;6.626;2023-02-28T08:57:15;97106.72;;;6.18;49.71
60228;BME280;46091;46.512;6.626;2023-02-28T08:59:18;97108.38;;;6.19;49.50
60228;BME280;46091;46.512;6.626;2023-02-28T09:01:23;97111.81;;;6.20;49.62
60228;BME280;46091;46.512;6.626;2023-02-28T09:03:26;97113.28;;;6.22;49.46
60228;BME280;46091;46.512;6.626;2023-02-28T09:05:30;97111.66;;;6.21;49.38
60228;BME280;46091;46.512;6.626;2023-02-28T09:07:33;97114.28;;;6.21;49.39
60228;BME280;46091;46.512;6.626;2023-02-28T09:09:36;97111.34;;;6.24;49.49
60228;BME280;46091;46.512;6.626;2023-02-28T09:11:39;97123.00;;;6.30;49.28
60228;BME280;46091;46.512;6.626;2023-02-28T09:13:42;97113.16;;;6.32;49.14
60228;BME280;46091;46.512;6.626;2023-02-28T09:15:46;97120.59;;;6.36;49.19
60228;BME280;46091;46.512;6.626;2023-02-28T09:17:51;97118.97;;;6.43;49.27
60228;BME280;46091;46.512;6.626;2023-02-28T09:19:53;97115.72;;;6.50;49.05
60228;BME280;46091;46.512;6.626;2023-02-28T09:21:58;97120.13;;;6.49;48.98
60228;BME280;46091;46.512;6.626;2023-02-28T09:24:01;97118.66;;;6.47;49.09
60228;BME280;46091;46.512;6.626;2023-02-28T09:26:04;97117.34;;;6.51;49.12
60228;BME280;46091;46.512;6.626;2023-02-28T09:28:07;97117.69;;;6.56;49.14
60228;BME280;46091;46.512;6.626;2023-02-28T09:30:11;97115.06;;;6.56;48.84
60228;BME280;46091;46.512;6.626;2023-02-28T09:32:14;97104.22;;;6.51;48.97
60228;BME280;46091;46.512;6.626;2023-02-28T09:34:17;97106.34;;;6.55;48.84
60228;BME280;46091;46.512;6.626;2023-02-28T09:36:21;97111.78;;;6.54;48.81
60228;BME280;46091;46.512;6.626;2023-02-28T09:38:36;97108.81;;;6.57;48.82
60228;BME280;46091;46.512;6.626;2023-02-28T09:40:47;97111.44;;;6.57;48.89
60228;BME280;46091;46.512;6.626;2023-02-28T09:42:53;97117.88;;;6.62;48.71
60228;BME280;46091;46.512;6.626;2023-02-28T09:45:00;97105.72;;;6.61;48.71
60228;BME280;46091;46.512;6.626;2023-02-28T09:47:11;97122.16;;;6.63;48.48
60228;BME280;46091;46.512;6.626;2023-02-28T09:49:17;97119.34;;;6.65;48.38
60228;BME280;46091;46.512;6.626;2023-02-28T09:51:33;97134.78;;;6.68;48.63
60228;BME280;46091;46.512;6.626;2023-02-28T09:53:38;97127.75;;;6.68;48.77
60228;BME280;46091;46.512;6.626;2023-02-28T09:55:45;97133.50;;;6.72;48.64
60228;BME280;46091;46.512;6.626;2023-02-28T09:57:49;97123.00;;;6.72;48.21
60228;BME280;46091;46.512;6.626;2023-02-28T10:00:04;97124.97;;;6.70;48.26
60228;BME280;46091;46.512;6.626;2023-02-28T10:04:45;97121.84;;;6.75;48.50
60228;BME280;46091;46.512;6.626;2023-02-28T10:06:53;97125.66;;;6.80;48.31
60228;BME280;46091;46.512;6.626;2023-02-28T10:09:00;97124.66;;;6.81;48.12
60228;BME280;46091;46.512;6.626;2023-02-28T10:11:07;97123.84;;;6.89;48.12
60228;BME280;46091;46.512;6.626;2023-02-28T10:13:19;97134.53;;;6.95;48.19
60228;BME280;46091;46.512;6.626;2023-02-28T10:15:25;97131.56;;;6.98;47.88
60228;BME280;46091;46.512;6.626;2023-02-28T10:17:38;97130.91;;;6.96;47.97
60228;BME280;46091;46.512;6.626;2023-02-28T10:20:00;97129.59;;;6.92;48.28
60228;BME280;46091;46.512;6.626;2023-02-28T10:22:12;97132.06;;;6.94;48.09
60228;BME280;46091;46.512;6.626;2023-02-28T10:24:23;97130.91;;;6.96;48.03
60228;BME280;46091;46.512;6.626;2023-02-28T10:26:29;97142.28;;;7.05;48.04
60228;BME280;46091;46.512;6.626;2023-02-28T10:28:34;97132.91;;;7.03;47.88
60228;BME280;46091;46.512;6.626;2023-02-28T10:30:40;97146.88;;;7.03;47.99
60228;BME280;46091;46.512;6.626;2023-02-28T10:32:49;97136.84;;;6.98;47.84
60228;BME280;46091;46.512;6.626;2023-02-28T10:34:55;97141.09;;;6.99;47.84
60228;BME280;46091;46.512;6.626;2023-02-28T10:36:59;97151.63;;;6.99;47.80
60228;BME280;46091;46.512;6.626;2023-02-28T10:39:34;97154.91;;;7.01;47.85
60228;BME280;46091;46.512;6.626;2023-02-28T10:41:42;97147.34;;;6.98;48.05
60228;BME280;46091;46.512;6.626;2023-02-28T10:43:46;97145.69;;;6.97;47.65
60228;BME280;46091;46.512;6.626;2023-02-28T10:46:10;97141.75;;;6.93;47.79
60228;BME280;46091;46.512;6.626;2023-02-28T10:48:29;97141.75;;;6.93;47.63
60228;BME280;46091;46.512;6.626;2023-02-28T10:50:36;97144.06;;;6.96;47.69
60228;BME280;46091;46.512;6.626;2023-02-28T10:52:40;97148.69;;;7.03;47.77
60228;BME280;46091;46.512;6.626;2023-02-28T10:54:44;97150.16;;;7.05;47.53
60228;BME280;46091;46.512;6.626;2023-02-28T10:57:06;97152.63;;;7.07;47.64
60228;BME280;46091;46.512;6.626;2023-02-28T10:59:27;97155.41;;;7.13;47.72
60228;BME280;46091;46.512;6.626;2023-02-28T11:01:37;97148.03;;;7.17;47.69
60228;BME280;46091;46.512;6.626;2023-02-28T11:03:40;97140.28;;;7.23;47.38
60228;BME280;46091;46.512;6.626;2023-02-28T11:05:43;97141.47;;;7.29;47.44
60228;BME280;46091;46.512;6.626;2023-02-28T11:07:51;97137.50;;;7.33;47.37
60228;BME280;46091;46.512;6.626;2023-02-28T11:09:57;97137.22;;;7.36;47.22
60228;BME280;46091;46.512;6.626;2023-02-28T11:12:00;97139.16;;;7.34;47.37
60228;BME280;46091;46.512;6.626;2023-02-28T11:14:06;97141.13;;;7.32;47.33
60228;BME280;46091;46.512;6.626;2023-02-28T11:16:17;97134.56;;;7.36;47.29
60228;BME280;46091;46.512;6.626;2023-02-28T11:18:24;97126.00;;;7.42;47.35
60228;BME280;46091;46.512;6.626;2023-02-28T11:20:30;97130.94;;;7.45;47.32
60228;BME280;46091;46.512;6.626;2023-02-28T11:22:37;97124.03;;;7.44;47.16
60228;BME280;46091;46.512;6.626;2023-02-28T11:24:43;97125.38;;;7.48;47.07
60228;BME280;46091;46.512;6.626;2023-02-28T11:26:49;97125.03;;;7.51;47.31
60228;BME280;46091;46.512;6.626;2023-02-28T11:29:08;97126.50;;;7.54;47.23
60228;BME280;46091;46.512;6.626;2023-02-28T11:31:17;97120.72;;;7.58;47.18
60228;BME280;46091;46.512;6.626;2023-02-28T11:33:23;97116.97;;;7.61;47.10
60228;BME280;46091;46.512;6.626;2023-02-28T11:35:31;97121.22;;;7.62;46.92
60228;BME280;46091;46.512;6.626;2023-02-28T11:37:37;97122.88;;;7.63;47.10
60228;BME280;46091;46.512;6.626;2023-02-28T11:39:41;97115.81;;;7.64;47.04
60228;BME280;46091;46.512;6.626;2023-02-28T11:41:55;97123.19;;;7.68;46.96
60228;BME280;46091;46.512;6.626;2023-02-28T11:44:27;97117.75;;;7.70;46.84
60228;BME280;46091;46.512;6.626;2023-02-28T11:46:39;97114.16;;;7.71;46.78
60228;BME280;46091;46.512;6.626;2023-02-28T11:48:49;97115.78;;;7.72;46.86
60228;BME280;46091;46.512;6.626;2023-02-28T11:51:03;97115.63;;;7.73;46.71
60228;BME280;46091;46.512;6.626;2023-02-28T11:53:17;97110.66;;;7.78;46.74
60228;BME280;46091;46.512;6.626;2023-02-28T11:55:26;97110.66;;;7.78;46.74
60228;BME280;46091;46.512;6.626;2023-02-28T11:57:43;97112.31;;;7.79;46.86
60228;BME280;46091;46.512;6.626;2023-02-28T12:00:02;97109.19;;;7.84;46.65
60228;BME280;46091;46.512;6.626;2023-02-28T12:02:22;97108.03;;;7.86;46.62
60228;BME280;46091;46.512;6.626;2023-02-28T12:04:32;97104.22;;;7.89;46.76
60228;BME280;46091;46.512;6.626;2023-02-28T12:06:43;97105.22;;;7.88;46.75
60228;BME280;46091;46.512;6.626;2023-02-28T12:08:54;97094.56;;;7.81;46.64
60228;BME280;46091;46.512;6.626;2023-02-28T12:11:11;97100.97;;;7.79;46.67
60228;BME280;46091;46.512;6.626;2023-02-28T12:13:21;97104.59;;;7.78;46.67
60228;BME280;46091;46.512;6.626;2023-02-28T12:15:40;97106.56;;;7.76;46.75
60228;BME280;46091;46.512;6.626;2023-02-28T12:17:56;97106.41;;;7.77;46.51
60228;BME280;46091;46.512;6.626;2023-02-28T12:20:08;97103.28;;;7.82;46.63
60228;BME280;46091;46.512;6.626;2023-02-28T12:22:28;97110.84;;;7.85;46.61
60228;BME280;46091;46.512;6.626;2023-02-28T12:24:47;97103.94;;;7.84;46.69
60228;BME280;46091;46.512;6.626;2023-02-28T12:26:53;97104.59;;;7.78;46.50
60228;BME280;46091;46.512;6.626;2023-02-28T12:29:02;97099.31;;;7.78;46.77
60228;BME280;46091;46.512;6.626;2023-02-28T12:31:11;97099.31;;;7.78;46.66
60228;BME280;46091;46.512;6.626;2023-02-28T12:33:17;97092.06;;;7.80;46.80
60228;BME280;46091;46.512;6.626;2023-02-28T12:35:26;97091.06;;;7.81;46.54
60228;BME280;46091;46.512;6.626;2023-02-28T12:37:35;97097.34;;;7.80;46.56
60228;BME280;46091;46.512;6.626;2023-02-28T12:39:45;97090.78;;;7.76;46.59
60228;BME280;46091;46.512;6.626;2023-02-28T12:41:54;97089.97;;;7.75;46.59
60228;BME280;46091;46.512;6.626;2023-02-28T12:44:02;97088.31;;;7.82;46.41
60228;BME280;46091;46.512;6.626;2023-02-28T12:46:10;97086.97;;;7.86;46.40
60228;BME280;46091;46.512;6.626;2023-02-28T12:48:15;97082.19;;;7.90;46.31
60228;BME280;46091;46.512;6.626;2023-02-28T12:50:22;97076.09;;;7.89;46.51
60228;BME280;46091;46.512;6.626;2023-02-28T12:52:33;97076.25;;;7.88;46.36
60228;BME280;46091;46.512;6.626;2023-02-28T12:54:44;97071.66;;;7.90;46.58
60228;BME280;46091;46.512;6.626;2023-02-28T12:56:56;97072.97;;;7.94;46.23
60228;BME280;46091;46.512;6.626;2023-02-28T12:59:12;97075.09;;;7.99;46.52
60228;BME280;46091;46.512;6.626;2023-02-28T13:06:56;97073.75;;;8.03;46.40
60228;BME280;46091;46.512;6.626;2023-02-28T13:09:05;97076.88;;;8.06;46.45
60228;BME280;46091;46.512;6.626;2023-02-28T13:11:24;97079.47;;;8.14;46.00
60228;BME280;46091;46.512;6.626;2023-02-28T13:13:31;97070.72;;;8.22;45.97
60228;BME280;46091;46.512;6.626;2023-02-28T13:15:35;97063.13;;;8.27;46.24
60228;BME280;46091;46.512;6.626;2023-02-28T13:17:48;97063.94;;;8.28;45.92
60228;BME280;46091;46.512;6.626;2023-02-28T13:19:58;97066.59;;;8.28;45.96
60228;BME280;46091;46.512;6.626;2023-02-28T13:22:01;97069.84;;;8.30;46.05
60228;BME280;46091;46.512;6.626;2023-02-28T13:24:07;97063.25;;;8.34;45.93
60228;BME280;46091;46.512;6.626;2023-02-28T13:26:11;97064.91;;;8.35;45.82
60228;BME280;46091;46.512;6.626;2023-02-28T13:28:57;97068.03;;;8.30;45.81
60228;BME280;46091;46.512;6.626;2023-02-28T13:31:05;97065.91;;;8.26;45.97
60228;BME280;46091;46.512;6.626;2023-02-28T13:33:24;97061.81;;;8.23;46.18
60228;BME280;46091;46.512;6.626;2023-02-28T13:35:38;97061.63;;;8.25;45.93
60228;BME280;46091;46.512;6.626;2023-02-28T13:37:47;97069.72;;;8.23;46.01
60228;BME280;46091;46.512;6.626;2023-02-28T13:39:53;97075.69;;;8.17;46.14
60228;BME280;46091;46.512;6.626;2023-02-28T13:41:57;97068.59;;;8.17;45.84
60228;BME280;46091;46.512;6.626;2023-02-28T13:44:21;97068.25;;;8.21;45.83
60228;BME280;46091;46.512;6.626;2023-02-28T13:46:29;97072.81;;;8.27;45.81
60228;BME280;46091;46.512;6.626;2023-02-28T13:48:32;97078.59;;;8.30;45.77
60228;BME280;46091;46.512;6.626;2023-02-28T13:50:36;97066.72;;;8.34;45.94
60228;BME280;46091;46.512;6.626;2023-02-28T13:52:44;97069.50;;;8.41;45.92
60228;BME280;46091;46.512;6.626;2023-02-28T13:54:57;97073.44;;;8.45;45.87
60228;BME280;46091;46.512;6.626;2023-02-28T13:57:20;97070.44;;;8.48;45.48
60228;BME280;46091;46.512;6.626;2023-02-28T13:59:33;97075.38;;;8.51;45.54
60228;BME280;46091;46.512;6.626;2023-02-28T14:01:56;97082.63;;;8.49;45.50
60228;BME280;46091;46.512;6.626;2023-02-28T14:04:28;97084.59;;;8.47;45.66
60228;BME280;46091;46.512;6.626;2023-02-28T14:06:47;97091.88;;;8.45;45.46
60228;BME280;46091;46.512;6.626;2023-02-28T14:08:55;97092.03;;;8.43;45.66
60228;BME280;46091;46.512;6.626;2023-02-28T14:11:03;97095.03;;;8.40;45.58
60228;BME280;46091;46.512;6.626;2023-02-28T14:13:38;97093.72;;;8.36;45.83
60228;BME280;46091;46.512;6.626;2023-02-28T14:15:55;97093.56;;;8.30;45.46
60228;BME280;46091;46.512;6.626;2023-02-28T14:18:01;97099.84;;;8.21;45.29
60228;BME280;46091;46.512;6.626;2023-02-28T14:20:14;97095.59;;;8.11;45.56
60228;BME280;46091;46.512;6.626;2023-02-28T14:22:39;97086.06;;;8.10;45.45
60228;BME280;46091;46.512;6.626;2023-02-28T14:25:04;97086.72;;;8.12;45.37
60228;BME280;46091;46.512;6.626;2023-02-28T14:27:31;97088.84;;;8.17;45.36
60228;BME280;46091;46.512;6.626;2023-02-28T14:30:01;97093.13;;;8.18;45.26
60228;BME280;46091;46.512;6.626;2023-02-28T14:32:15;97086.69;;;8.21;45.14
60228;BME280;46091;46.512;6.626;2023-02-28T14:34:31;97078.31;;;8.17;45.30
60228;BME280;46091;46.512;6.626;2023-02-28T14:36:40;97088.03;;;8.16;45.32
60228;BME280;46091;46.512;6.626;2023-02-28T14:38:46;97079.13;;;8.17;45.11
60228;BME280;46091;46.512;6.626;2023-02-28T14:40:52;97069.41;;;8.18;45.20
60228;BME280;46091;46.512;6.626;2023-02-28T14:42:56;97073.88;;;8.17;45.06
60228;BME280;46091;46.512;6.626;2023-02-28T14:45:01;97069.41;;;8.18;44.98
60228;BME280;46091;46.512;6.626;2023-02-28T14:47:13;97072.69;;;8.20;45.03
60228;BME280;46091;46.512;6.626;2023-02-28T14:49:20;97082.06;;;8.23;45.23
60228;BME280;46091;46.512;6.626;2023-02-28T14:51:25;97077.63;;;8.23;45.08
60228;BME280;46091;46.512;6.626;2023-02-28T14:53:29;97096.22;;;8.22;45.26
60228;BME280;46091;46.512;6.626;2023-02-28T14:55:35;97077.53;;;8.08;45.01
60228;BME280;46091;46.512;6.626;2023-02-28T14:57:40;97080.53;;;7.97;45.01
60228;BME280;46091;46.512;6.626;2023-02-28T14:59:45;97087.78;;;7.95;45.04
60228;BME280;46091;46.512;6.626;2023-02-28T15:01:48;97083.16;;;7.89;44.78
60228;BME280;46091;46.512;6.626;2023-02-28T15:04:00;97091.06;;;7.81;45.07
60228;BME280;46091;46.512;6.626;2023-02-28T15:06:05;97089.97;;;7.75;44.88
60228;BME280;46091;46.512;6.626;2023-02-28T15:08:14;97087.50;;;7.74;44.89
60228;BME280;46091;46.512;6.626;2023-02-28T15:10:20;97083.53;;;7.70;44.96
60228;BME280;46091;46.512;6.626;2023-02-28T15:12:24;97089.78;;;7.69;45.13
60228;BME280;46091;46.512;6.626;2023-02-28T15:14:27;97084.22;;;7.64;44.97
60228;BME280;46091;46.512;6.626;2023-02-28T15:16:34;97081.94;;;7.61;44.82
60228;BME280;46091;46.512;6.626;2023-02-28T15:18:45;97076.00;;;7.58;45.08
60228;BME280;46091;46.512;6.626;2023-02-28T15:20:49;97078.31;;;7.62;44.99
60228;BME280;46091;46.512;6.626;2023-02-28T15:22:54;97070.06;;;7.65;45.13
60228;BME280;46091;46.512;6.626;2023-02-28T15:25:02;97090.81;;;7.59;44.82
60228;BME280;46091;46.512;6.626;2023-02-28T15:27:11;97081.13;;;7.44;45.01
60228;BME280;46091;46.512;6.626;2023-02-28T15:29:20;97084.59;;;7.28;45.08
60228;BME280;46091;46.512;6.626;2023-02-28T15:31:27;97073.91;;;7.21;45.06
60228;BME280;46091;46.512;6.626;2023-02-28T15:33:52;97089.03;;;7.19;45.14
60228;BME280;46091;46.512;6.626;2023-02-28T15:36:06;97079.84;;;7.15;45.15
60228;BME280;46091;46.512;6.626;2023-02-28T15:38:18;97074.56;;;7.07;45.15
60228;BME280;46091;46.512;6.626;2023-02-28T15:40:26;97070.31;;;7.06;45.33
60228;BME280;46091;46.512;6.626;2023-02-28T15:42:30;97085.72;;;7.01;45.23
60228;BME280;46091;46.512;6.626;2023-02-28T15:44:34;97086.22;;;6.96;45.13
60228;BME280;46091;46.512;6.626;2023-02-28T15:46:39;97090.50;;;6.97;45.23
60228;BME280;46091;46.512;6.626;2023-02-28T15:48:44;97092.66;;;6.94;45.28
60228;BME280;46091;46.512;6.626;2023-02-28T15:50:50;97088.88;;;6.96;45.13
60228;BME280;46091;46.512;6.626;2023-02-28T15:52:54;97093.31;;;7.04;45.03
60228;BME280;46091;46.512;6.626;2023-02-28T15:54:57;97091.50;;;7.13;45.14
60228;BME280;46091;46.512;6.626;2023-02-28T15:57:05;97098.25;;;7.15;44.87
60228;BME280;46091;46.512;6.626;2023-02-28T15:59:15;97093.81;;;7.16;45.07
60228;BME280;46091;46.512;6.626;2023-02-28T16:01:21;97089.69;;;7.13;44.83
60228;BME280;46091;46.512;6.626;2023-02-28T16:03:27;97090.50;;;7.06;45.01
60228;BME280;46091;46.512;6.626;2023-02-28T16:05:36;97088.34;;;7.01;44.91
60228;BME280;46091;46.512;6.626;2023-02-28T16:07:41;97089.34;;;7.00;44.91
60228;BME280;46091;46.512;6.626;2023-02-28T16:09:44;97090.19;;;6.92;44.90
60228;BME280;46091;46.512;6.626;2023-02-28T16:11:50;97094.75;;;6.90;45.29
60228;BME280;46091;46.512;6.626;2023-02-28T16:13:54;97094.75;;;6.90;45.12
60228;BME280;46091;46.512;6.626;2023-02-28T16:15:57;97098.53;;;6.88;45.05
60228;BME280;46091;46.512;6.626;2023-02-28T16:18:02;97098.06;;;6.84;45.27
60228;BME280;46091;46.512;6.626;2023-02-28T16:20:12;97106.59;;;6.86;45.07
60228;BME280;46091;46.512;6.626;2023-02-28T16:22:16;97110.19;;;6.85;45.15
60228;BME280;46091;46.512;6.626;2023-02-28T16:24:19;97111.53;;;6.81;45.14
60228;BME280;46091;46.512;6.626;2023-02-28T16:26:23;97117.06;;;6.78;45.26
60228;BME280;46091;46.512;6.626;2023-02-28T16:28:31;97111.34;;;6.75;45.24
60228;BME280;46091;46.512;6.626;2023-02-28T16:30:37;97117.91;;;6.70;45.33
60228;BME280;46091;46.512;6.626;2023-02-28T16:32:40;97123.63;;;6.66;45.13
60228;BME280;46091;46.512;6.626;2023-02-28T16:34:43;97126.75;;;6.61;45.16
60228;BME280;46091;46.512;6.626;2023-02-28T16:36:47;97129.50;;;6.52;45.17
60228;BME280;46091;46.512;6.626;2023-02-28T16:38:50;97134.41;;;6.47;45.31
60228;BME280;46091;46.512;6.626;2023-02-28T16:40:56;97130.59;;;6.41;45.32
60228;BME280;46091;46.512;6.626;2023-02-28T16:43:05;97125.84;;;6.45;45.53
60228;BME280;46091;46.512;6.626;2023-02-28T16:45:22;97132.25;;;6.42;45.43
60228;BME280;46091;46.512;6.626;2023-02-28T16:47:27;97128.16;;;6.39;45.27
60228;BME280;46091;46.512;6.626;2023-02-28T16:49:30;97127.28;;;6.31;45.27
60228;BME280;46091;46.512;6.626;2023-02-28T16:51:32;97133.69;;;6.28;45.57
60228;BME280;46091;46.512;6.626;2023-02-28T16:53:36;97131.88;;;6.29;45.47
60228;BME280;46091;46.512;6.626;2023-02-28T16:55:39;97135.81;;;6.25;45.34
60228;BME280;46091;46.512;6.626;2023-02-28T16:57:43;97136.25;;;6.20;45.55
60228;BME280;46091;46.512;6.626;2023-02-28T16:59:47;97125.44;;;6.15;45.56
60228;BME280;46091;46.512;6.626;2023-02-28T17:01:52;97137.19;;;6.11;45.41
60228;BME280;46091;46.512;6.626;2023-02-28T17:03:56;97137.03;;;6.04;45.50
60228;BME280;46091;46.512;6.626;2023-02-28T17:06:00;97142.22;;;5.96;45.59
60228;BME280;46091;46.512;6.626;2023-02-28T17:08:03;97140.56;;;5.95;45.71
60228;BME280;46091;46.512;6.626;2023-02-28T17:10:13;97145.97;;;5.94;45.61
60228;BME280;46091;46.512;6.626;2023-02-28T17:12:16;97142.84;;;5.90;45.85
60228;BME280;46091;46.512;6.626;2023-02-28T17:14:19;97149.50;;;5.84;45.63
60228;BME280;46091;46.512;6.626;2023-02-28T17:16:25;97150.31;;;5.85;45.62
60228;BME280;46091;46.512;6.626;2023-02-28T17:18:31;97154.09;;;5.82;45.96
60228;BME280;46091;46.512;6.626;2023-02-28T17:20:36;97150.41;;;5.75;45.90
60228;BME280;46091;46.512;6.626;2023-02-28T17:22:39;97154.19;;;5.73;45.72
60228;BME280;46091;46.512;6.626;2023-02-28T17:24:42;97157.44;;;5.67;45.93
60228;BME280;46091;46.512;6.626;2023-02-28T17:26:46;97156.56;;;5.66;45.99
60228;BME280;46091;46.512;6.626;2023-02-28T17:28:51;97163.78;;;5.64;45.88
60228;BME280;46091;46.512;6.626;2023-02-28T17:30:56;97163.28;;;5.61;46.10
60228;BME280;46091;46.512;6.626;2023-02-28T17:32:59;97169.00;;;5.56;45.95
60228;BME280;46091;46.512;6.626;2023-02-28T17:35:02;97170.25;;;5.52;46.03
60228;BME280;46091;46.512;6.626;2023-02-28T17:37:08;97170.88;;;5.46;46.13
60228;BME280;46091;46.512;6.626;2023-02-28T17:39:12;97169.22;;;5.45;46.11
60228;BME280;46091;46.512;6.626;2023-02-28T17:41:16;97168.84;;;5.40;46.13
60228;BME280;46091;46.512;6.626;2023-02-28T17:43:19;97166.53;;;5.37;46.07
60228;BME280;46091;46.512;6.626;2023-02-28T17:45:22;97167.66;;;5.34;46.13
60228;BME280;46091;46.512;6.626;2023-02-28T17:47:25;97168.78;;;5.32;46.09
60228;BME280;46091;46.512;6.626;2023-02-28T17:49:28;97175.44;;;5.26;46.22
60228;BME280;46091;46.512;6.626;2023-02-28T17:51:31;97177.72;;;5.21;46.20